Time;durP1;ratioP1;P1;durP2;ratioP2;P2;SDS_P1;SDS_P2;PMS_P1;PMS_P2;Temp;Humidity;BMP_temperature;BMP_pressure;BME280_temperature;BME280_humidity;BME280_pressure;Samples;Min_cycle;Max_cycle;Signal;HPM_P1;HPM_P2
2023/10/05 00:01:27;;;;;;;2.13;1.60;;;20.60;49.40;;;;;;5128785;27;45378;-69
2023/10/05 00:03:54;;;;;;;2.53;1.70;;;20.60;49.40;;;;;;5128697;27;45270;-69
2023/10/05 00:06:25;;;;;;;1.60;1.38;;;20.50;49.40;;;;;;5128412;27;46334;-69
2023/10/05 00:08:53;;;;;;;1.95;1.42;;;20.50;49.40;;;;;;5128507;27;45363;-69
2023/10/05 00:11:24;;;;;;;4.13;1.88;;;20.50;49.40;;;;;;5128742;27;45256;-69
2023/10/05 00:13:51;;;;;;;2.13;1.73;;;20.50;49.50;;;;;;5128582;27;45350;-69
2023/10/05 00:16:21;;;;;;;2.53;1.45;;;20.50;49.50;;;;;;5128273;27;47313;-69
2023/10/05 00:18:49;;;;;;;2.08;1.30;;;20.40;49.40;;;;;;5128479;27;45236;-70
2023/10/05 00:21:18;;;;;;;1.65;1.13;;;20.40;49.40;;;;;;5128760;27;45510;-69
2023/10/05 00:23:52;;;;;;;3.42;1.85;;;20.40;49.50;;;;;;5128490;27;45168;-69
2023/10/05 00:26:23;;;;;;;2.15;1.60;;;20.40;49.50;;;;;;5128188;27;45333;-69
2023/10/05 00:29:01;;;;;;;3.13;1.70;;;20.40;49.50;;;;;;5128018;27;45453;-71
2023/10/05 00:31:28;;;;;;;2.13;1.40;;;20.30;49.50;;;;;;5127788;27;45380;-70
2023/10/05 00:33:56;;;;;;;2.05;1.48;;;20.30;49.50;;;;;;5128730;27;45230;-71
2023/10/05 00:36:24;;;;;;;2.75;1.40;;;20.30;49.50;;;;;;5127782;27;45805;-70
2023/10/05 00:38:52;;;;;;;2.10;1.63;;;20.30;49.50;;;;;;5128246;27;45354;-69
2023/10/05 00:41:19;;;;;;;2.78;1.77;;;20.20;49.50;;;;;;5127518;27;45272;-70
2023/10/05 00:43:46;;;;;;;1.52;1.42;;;20.20;49.60;;;;;;5128072;27;45362;-70
2023/10/05 00:46:13;;;;;;;2.13;1.45;;;20.20;49.50;;;;;;5128093;27;47678;-70
2023/10/05 00:48:48;;;;;;;2.85;1.70;;;20.20;49.60;;;;;;5127825;27;45394;-70
2023/10/05 00:51:23;;;;;;;2.72;1.40;;;20.20;49.60;;;;;;5127967;27;45419;-70
2023/10/05 00:53:51;;;;;;;1.83;1.30;;;20.20;49.60;;;;;;5128253;27;45436;-70
2023/10/05 00:56:18;;;;;;;2.05;1.42;;;20.20;49.60;;;;;;5127392;27;46611;-70
2023/10/05 00:58:47;;;;;;;2.13;1.30;;;20.10;49.60;;;;;;5127931;27;45321;-70
2023/10/05 01:01:22;;;;;;;2.60;1.40;;;20.10;49.60;;;;;;5128109;27;45330;-70
2023/10/05 01:04:18;;;;;;;2.88;1.70;;;20.10;49.60;;;;;;5127928;27;45420;-70
2023/10/05 01:06:54;;;;;;;2.42;1.73;;;20.10;49.60;;;;;;5127576;27;46786;-70
2023/10/05 01:09:39;;;;;;;3.08;1.50;;;20.10;49.60;;;;;;5127424;27;45452;-70
2023/10/05 01:12:19;;;;;;;2.33;1.42;;;20.10;49.70;;;;;;5129927;27;45441;-70
2023/10/05 01:14:51;;;;;;;2.47;1.50;;;20.00;50.30;;;;;;5131453;27;45332;-70
2023/10/05 01:17:20;;;;;;;2.53;1.50;;;20.00;49.70;;;;;;5131359;27;45495;-70
2023/10/05 01:19:50;;;;;;;2.00;1.40;;;20.00;49.70;;;;;;5131369;27;45182;-70
2023/10/05 01:22:20;;;;;;;2.90;1.50;;;20.00;49.70;;;;;;5131566;27;45655;-70
2023/10/05 01:24:49;;;;;;;3.10;1.60;;;20.00;49.70;;;;;;5131477;27;45631;-70
2023/10/05 01:27:16;;;;;;;3.22;1.70;;;19.90;49.70;;;;;;5131096;27;46368;-70
2023/10/05 01:29:42;;;;;;;2.88;1.50;;;19.90;49.70;;;;;;5130905;27;45238;-70
2023/10/05 01:32:10;;;;;;;2.53;1.65;;;19.90;49.70;;;;;;5131266;27;45354;-70
2023/10/05 01:34:39;;;;;;;2.15;1.50;;;19.90;50.40;;;;;;5131315;27;45319;-70
2023/10/05 01:37:06;;;;;;;1.52;1.40;;;19.90;49.70;;;;;;5130733;27;46519;-70
2023/10/05 01:39:35;;;;;;;1.70;1.40;;;19.90;49.70;;;;;;5130861;27;45389;-70
2023/10/05 01:42:06;;;;;;;1.90;1.25;;;19.90;49.80;;;;;;5131218;27;45335;-70
2023/10/05 01:44:35;;;;;;;3.25;1.60;;;19.80;49.70;;;;;;5131040;27;45311;-70
2023/10/05 01:47:02;;;;;;;1.80;1.55;;;19.80;49.80;;;;;;5130697;27;45571;-70
2023/10/05 01:49:30;;;;;;;2.33;1.45;;;19.80;49.80;;;;;;5130870;27;45551;-70
2023/10/05 01:51:57;;;;;;;3.17;1.70;;;19.80;49.80;;;;;;5131084;27;45450;-70
2023/10/05 01:54:28;;;;;;;2.45;1.50;;;19.80;49.80;;;;;;5131022;27;45340;-70
2023/10/05 01:56:56;;;;;;;3.17;1.75;;;19.80;49.90;;;;;;5130726;27;46234;-70
2023/10/05 01:59:27;;;;;;;2.72;1.40;;;19.70;49.80;;;;;;5130642;27;45380;-69
2023/10/05 02:01:56;;;;;;;2.80;1.80;;;19.70;49.90;;;;;;5130358;27;45284;-71
2023/10/05 02:04:23;;;;;;;2.28;1.70;;;19.70;49.90;;;;;;5129937;27;45296;-70
2023/10/05 02:06:52;;;;;;;2.13;1.33;;;19.70;49.90;;;;;;5130426;27;46642;-70
2023/10/05 02:09:19;;;;;;;2.10;1.30;;;19.70;49.90;;;;;;5130347;27;45334;-70
2023/10/05 02:11:47;;;;;;;2.63;1.50;;;19.70;49.90;;;;;;5130803;27;45357;-70
2023/10/05 02:14:17;;;;;;;2.28;1.35;;;19.60;49.90;;;;;;5130286;27;45425;-70
2023/10/05 02:16:49;;;;;;;2.28;1.27;;;19.60;49.90;;;;;;5130202;27;45424;-70
2023/10/05 02:19:16;;;;;;;2.50;1.30;;;19.70;50.00;;;;;;5130366;27;45351;-71
2023/10/05 02:21:45;;;;;;;3.00;1.33;;;19.60;49.90;;;;;;5131381;27;45350;-70
2023/10/05 02:24:16;;;;;;;2.30;1.40;;;19.60;50.00;;;;;;5130361;27;45576;-70
2023/10/05 02:26:54;;;;;;;2.40;1.45;;;19.60;50.00;;;;;;5130264;27;48754;-70
2023/10/05 02:29:23;;;;;;;1.98;1.42;;;19.60;50.00;;;;;;5130121;27;45366;-70
2023/10/05 02:31:58;;;;;;;2.10;1.50;;;19.60;50.00;;;;;;5130243;27;45217;-70
2023/10/05 02:34:29;;;;;;;1.40;1.10;;;19.60;50.00;;;;;;5130420;27;45332;-70
2023/10/05 02:36:56;;;;;;;2.70;1.17;;;19.50;49.90;;;;;;5130014;27;46587;-70
2023/10/05 02:39:24;;;;;;;2.38;1.25;;;19.50;49.90;;;;;;5129818;27;45341;-70
2023/10/05 02:41:51;;;;;;;2.25;1.30;;;19.60;50.50;;;;;;5131322;27;45334;-70
2023/10/05 02:44:22;;;;;;;2.58;1.17;;;19.50;50.00;;;;;;5130315;27;45406;-70
2023/10/05 02:46:51;;;;;;;2.10;1.30;;;19.50;50.00;;;;;;5129915;27;45735;-70
2023/10/05 02:49:18;;;;;;;3.13;1.23;;;19.50;50.00;;;;;;5130022;27;45258;-70
2023/10/05 02:51:46;;;;;;;1.75;1.30;;;19.50;50.00;;;;;;5130042;27;45304;-70
2023/10/05 02:54:13;;;;;;;1.98;1.20;;;19.50;50.00;;;;;;5130026;27;45359;-70
2023/10/05 02:56:40;;;;;;;2.30;1.35;;;19.50;50.00;;;;;;5129459;27;45374;-70
2023/10/05 02:59:09;;;;;;;1.27;1.10;;;19.40;50.00;;;;;;5129821;27;45341;-70
2023/10/05 03:01:37;;;;;;;2.13;1.35;;;19.50;50.10;;;;;;5129125;27;45379;-70
2023/10/05 03:04:09;;;;;;;2.13;1.27;;;19.40;50.70;;;;;;5129409;27;45414;-70
2023/10/05 03:06:39;;;;;;;1.25;1.15;;;19.40;50.10;;;;;;5129958;27;45474;-70
2023/10/05 03:09:08;;;;;;;2.72;1.17;;;19.40;50.10;;;;;;5129703;27;45248;-70
2023/10/05 03:11:38;;;;;;;1.73;1.10;;;19.40;50.10;;;;;;5129886;27;45199;-70
2023/10/05 03:14:05;;;;;;;2.13;1.35;;;19.40;50.10;;;;;;5129860;27;45146;-70
2023/10/05 03:16:37;;;;;;;1.77;1.10;;;19.40;50.10;;;;;;5129550;27;45264;-70
2023/10/05 03:19:06;;;;;;;4.15;1.30;;;19.40;50.10;;;;;;5129442;27;45342;-71
2023/10/05 03:21:34;;;;;;;1.65;1.13;;;19.40;50.80;;;;;;5130020;27;45378;-70
2023/10/05 03:24:01;;;;;;;2.97;1.10;;;19.30;50.10;;;;;;5130093;27;45329;-70
2023/10/05 03:26:29;;;;;;;1.88;1.48;;;19.40;50.20;;;;;;5129146;27;45463;-70
2023/10/05 03:28:55;;;;;;;1.40;1.15;;;19.40;50.20;;;;;;5129238;27;45355;-70
2023/10/05 03:31:25;;;;;;;1.33;1.10;;;19.30;50.10;;;;;;5129009;27;45256;-69
2023/10/05 03:33:52;;;;;;;2.60;1.40;;;19.30;50.10;;;;;;5128795;27;45591;-70
2023/10/05 03:36:21;;;;;;;2.42;1.25;;;19.30;50.10;;;;;;5129260;27;47333;-68
2023/10/05 03:38:56;;;;;;;4.22;1.38;;;19.30;50.20;;;;;;5129068;27;45327;-68
2023/10/05 03:41:27;;;;;;;2.35;1.25;;;19.30;50.20;;;;;;5129182;27;45252;-70
2023/10/05 03:43:55;;;;;;;1.85;1.00;;;19.30;50.10;;;;;;5129334;27;44789;-69
2023/10/05 03:46:24;;;;;;;3.45;1.30;;;19.30;50.20;;;;;;5128885;27;46286;-68
2023/10/05 03:48:53;;;;;;;1.05;0.95;;;19.30;50.20;;;;;;5128838;27;45397;-70
2023/10/05 03:51:21;;;;;;;3.20;1.42;;;19.20;50.20;;;;;;5128985;27;45298;-70
2023/10/05 03:53:50;;;;;;;1.70;1.30;;;19.20;50.20;;;;;;5129123;27;45340;-70
2023/10/05 03:56:21;;;;;;;1.23;0.98;;;19.20;50.20;;;;;;5128674;27;46532;-70
2023/10/05 03:58:48;;;;;;;2.22;1.15;;;19.20;50.30;;;;;;5128352;27;45262;-69
2023/10/05 04:01:15;;;;;;;1.55;1.45;;;19.20;50.30;;;;;;5128293;27;45293;-69
2023/10/05 04:03:46;;;;;;;2.25;1.42;;;19.20;50.30;;;;;;5128836;27;45311;-70
2023/10/05 04:06:18;;;;;;;1.98;1.20;;;19.20;50.30;;;;;;5128497;27;45934;-70
2023/10/05 04:08:49;;;;;;;3.85;1.30;;;19.20;50.30;;;;;;5128913;27;45384;-70
2023/10/05 04:11:16;;;;;;;1.33;1.15;;;19.20;50.30;;;;;;5128727;27;45349;-70
2023/10/05 04:13:43;;;;;;;2.10;1.38;;;19.20;50.20;;;;;;5128866;27;45347;-70
2023/10/05 04:16:11;;;;;;;1.90;1.40;;;19.10;50.30;;;;;;5128530;27;45636;-70
2023/10/05 04:18:39;;;;;;;2.15;1.38;;;19.10;50.30;;;;;;5133077;27;45224;-70
2023/10/05 04:21:06;;;;;;;2.90;1.38;;;19.10;50.30;;;;;;5131015;27;45183;-70
2023/10/05 04:23:33;;;;;;;2.65;1.30;;;19.10;50.30;;;;;;5140211;27;45607;-70
2023/10/05 04:26:01;;;;;;;1.95;1.10;;;19.10;50.40;;;;;;5129360;27;45412;-71
2023/10/05 04:28:34;;;;;;;2.88;1.30;;;19.10;50.30;;;;;;5128661;27;45309;-68
2023/10/05 04:31:02;;;;;;;1.85;1.30;;;19.10;50.40;;;;;;5128259;27;45387;-70
2023/10/05 04:33:31;;;;;;;5.07;1.60;;;19.10;50.30;;;;;;5128395;27;45409;-70
2023/10/05 04:35:58;;;;;;;1.73;1.02;;;19.10;50.40;;;;;;5128327;27;46670;-70
2023/10/05 04:38:25;;;;;;;2.05;1.35;;;19.10;50.40;;;;;;5128145;27;45413;-70
2023/10/05 04:40:52;;;;;;;1.65;1.30;;;19.10;50.40;;;;;;5128621;27;45313;-70
2023/10/05 04:43:21;;;;;;;1.77;1.30;;;19.10;50.40;;;;;;5128370;27;45357;-71
2023/10/05 04:45:50;;;;;;;2.35;1.02;;;19.10;50.40;;;;;;5126927;27;46938;-70
2023/10/05 04:48:18;;;;;;;1.60;1.10;;;19.00;50.40;;;;;;5128238;27;45375;-70
2023/10/05 04:50:47;;;;;;;1.20;1.10;;;19.00;50.30;;;;;;5127848;27;45329;-71
2023/10/05 04:53:14;;;;;;;1.75;1.30;;;19.00;50.30;;;;;;5127393;27;45365;-70
2023/10/05 04:55:42;;;;;;;2.97;1.33;;;19.00;50.40;;;;;;5127737;27;46280;-70
2023/10/05 05:01:28;;;;;;;1.50;1.20;;;19.00;50.40;;;;;;5110450;27;45398;-70
2023/10/05 05:03:56;;;;;;;1.70;1.38;;;19.00;50.40;;;;;;5128055;27;45375;-70
2023/10/05 05:06:25;;;;;;;2.45;1.25;;;19.00;50.40;;;;;;5127601;27;45366;-70
2023/10/05 05:08:53;;;;;;;2.03;1.20;;;19.00;50.50;;;;;;5126973;27;45386;-70
2023/10/05 05:11:20;;;;;;;2.15;1.00;;;19.00;50.50;;;;;;5127737;27;45382;-70
2023/10/05 05:13:46;;;;;;;1.40;1.30;;;19.00;50.50;;;;;;5127935;27;45314;-70
2023/10/05 05:16:16;;;;;;;1.65;1.17;;;19.00;51.10;;;;;;5127820;27;45549;-70
2023/10/05 05:18:42;;;;;;;2.13;1.23;;;19.00;50.50;;;;;;5127666;27;45388;-70
2023/10/05 05:21:11;;;;;;;1.48;1.10;;;18.90;50.50;;;;;;5127678;27;45345;-70
2023/10/05 05:23:39;;;;;;;2.10;1.33;;;18.90;50.40;;;;;;5127898;27;45272;-70
2023/10/05 05:26:09;;;;;;;2.20;1.25;;;18.90;50.40;;;;;;5127400;27;45471;-70
2023/10/05 05:28:37;;;;;;;1.45;1.08;;;18.90;50.40;;;;;;5127443;27;45386;-70
2023/10/05 05:31:14;;;;;;;3.80;1.30;;;18.90;50.40;;;;;;5127207;27;45307;-70
2023/10/05 05:33:44;;;;;;;2.20;1.42;;;18.90;50.50;;;;;;5127759;27;45266;-70
2023/10/05 05:36:12;;;;;;;2.55;1.38;;;18.90;50.50;;;;;;5127428;27;45514;-70
2023/10/05 05:38:39;;;;;;;2.53;1.70;;;18.90;50.60;;;;;;5127793;27;45361;-70
2023/10/05 05:41:15;;;;;;;2.03;1.05;;;18.90;50.50;;;;;;5127489;27;45237;-70
2023/10/05 05:43:42;;;;;;;4.13;1.27;;;18.90;50.50;;;;;;5127418;27;45371;-70
2023/10/05 05:46:12;;;;;;;1.80;1.40;;;18.80;50.50;;;;;;5127167;27;46920;-70
2023/10/05 05:48:40;;;;;;;1.52;1.30;;;18.90;50.60;;;;;;5127548;27;45280;-70
2023/10/05 05:51:13;;;;;;;3.25;1.05;;;18.80;50.50;;;;;;5127451;27;45513;-70
2023/10/05 05:53:41;;;;;;;3.83;1.35;;;18.80;50.60;;;;;;5127044;27;45319;-70
2023/10/05 05:56:08;;;;;;;1.40;1.10;;;18.80;50.50;;;;;;5126964;27;45318;-70
2023/10/05 05:58:38;;;;;;;1.75;1.35;;;18.80;50.60;;;;;;5130036;27;45219;-70
2023/10/05 06:01:08;;;;;;;2.03;1.30;;;18.80;50.60;;;;;;5131201;27;45209;-70
2023/10/05 06:03:34;;;;;;;2.78;1.52;;;18.80;50.60;;;;;;5130894;27;45555;-70
2023/10/05 06:06:03;;;;;;;1.52;1.05;;;18.80;50.60;;;;;;5129860;27;46510;-70
2023/10/05 06:08:31;;;;;;;1.98;1.50;;;18.80;50.50;;;;;;5130531;27;45243;-70
2023/10/05 06:10:58;;;;;;;2.03;1.30;;;18.80;50.60;;;;;;5130696;27;45356;-70
2023/10/05 06:13:25;;;;;;;1.52;1.15;;;18.80;50.60;;;;;;5130793;27;45335;-70
2023/10/05 06:15:52;;;;;;;1.90;1.60;;;18.80;50.60;;;;;;5130208;27;47049;-70
2023/10/05 06:18:19;;;;;;;1.42;1.30;;;18.80;50.60;;;;;;5130414;27;45207;-70
2023/10/05 06:20:47;;;;;;;2.03;1.55;;;18.80;50.60;;;;;;5128310;27;45397;-70
2023/10/05 06:23:14;;;;;;;2.95;1.75;;;18.80;50.60;;;;;;5130772;27;45454;-70
2023/10/05 06:25:45;;;;;;;1.40;1.30;;;18.80;50.60;;;;;;5130417;27;47023;-70
2023/10/05 06:28:13;;;;;;;2.58;1.10;;;18.80;51.20;;;;;;5130537;27;45271;-70
2023/10/05 06:30:40;;;;;;;2.30;1.00;;;18.80;50.60;;;;;;5119154;27;45502;-70
2023/10/05 06:33:08;;;;;;;1.48;1.20;;;18.80;51.20;;;;;;5128266;27;45293;-70
2023/10/05 06:35:35;;;;;;;1.38;1.15;;;18.80;50.70;;;;;;5109903;27;45528;-70
2023/10/05 06:38:03;;;;;;;2.78;1.55;;;18.80;50.60;;;;;;5116950;27;45347;-71
2023/10/05 06:40:30;;;;;;;1.23;1.00;;;18.80;50.60;;;;;;5132097;27;45373;-70
2023/10/05 06:42:58;;;;;;;1.27;1.17;;;18.80;50.60;;;;;;5131100;27;45578;-71
2023/10/05 06:45:25;;;;;;;1.35;1.25;;;18.80;50.60;;;;;;5130166;27;45836;-72
2023/10/05 06:47:52;;;;;;;1.15;1.00;;;18.80;50.50;;;;;;5130364;27;45293;-72
2023/10/05 06:50:21;;;;;;;0.90;0.90;;;18.80;50.60;;;;;;5129835;27;45285;-71
2023/10/05 06:52:48;;;;;;;3.20;1.40;;;18.80;50.50;;;;;;5131112;27;45171;-71
2023/10/05 06:55:17;;;;;;;2.78;1.23;;;18.80;50.50;;;;;;5130453;27;46999;-71
2023/10/05 06:57:44;;;;;;;1.70;1.13;;;18.80;50.50;;;;;;5130989;27;45316;-72
2023/10/05 07:00:16;;;;;;;1.58;1.20;;;18.80;50.50;;;;;;5130720;27;45235;-71
2023/10/05 07:02:43;;;;;;;1.20;1.10;;;18.90;50.50;;;;;;5130909;27;45440;-72
2023/10/05 07:05:11;;;;;;;2.22;1.42;;;18.90;50.50;;;;;;5130125;27;45391;-71
2023/10/05 07:07:37;;;;;;;1.13;1.02;;;18.80;50.40;;;;;;5130421;27;45196;-71
2023/10/05 07:10:05;;;;;;;1.25;1.10;;;18.80;50.50;;;;;;5129362;27;45191;-71
2023/10/05 07:12:32;;;;;;;1.90;1.35;;;18.90;50.60;;;;;;5130696;27;45604;-71
2023/10/05 07:14:59;;;;;;;1.38;1.00;;;18.90;50.50;;;;;;5130246;27;45524;-71
2023/10/05 07:17:29;;;;;;;1.85;1.40;;;18.90;50.60;;;;;;5130184;27;45312;-72
2023/10/05 07:19:55;;;;;;;1.02;1.00;;;18.90;50.50;;;;;;5129819;27;45267;-71
2023/10/05 07:22:22;;;;;;;2.75;1.30;;;18.90;50.60;;;;;;5130751;27;45348;-71
2023/10/05 07:24:49;;;;;;;1.33;1.20;;;18.90;50.50;;;;;;5129932;27;47059;-71
2023/10/05 07:27:16;;;;;;;2.63;1.17;;;18.90;50.40;;;;;;5130131;27;45289;-71
2023/10/05 07:29:45;;;;;;;1.88;1.20;;;19.00;50.60;;;;;;5129732;27;45272;-71
2023/10/05 07:32:13;;;;;;;2.00;1.20;;;18.90;50.40;;;;;;5130879;27;45223;-71
2023/10/05 07:34:42;;;;;;;2.13;1.40;;;19.00;50.50;;;;;;5129758;27;45399;-72
2023/10/05 07:37:10;;;;;;;1.55;1.33;;;19.00;50.50;;;;;;5129042;27;45201;-69
2023/10/05 07:39:38;;;;;;;1.80;1.33;;;19.00;50.50;;;;;;5128978;27;45239;-71
2023/10/05 07:42:06;;;;;;;1.98;1.50;;;19.00;50.50;;;;;;5129425;27;45468;-71
2023/10/05 07:44:35;;;;;;;2.42;1.30;;;19.00;50.40;;;;;;5129520;27;45428;-71
2023/10/05 07:47:03;;;;;;;1.75;1.10;;;19.00;50.50;;;;;;5129488;27;45340;-72
2023/10/05 07:49:30;;;;;;;3.03;1.38;;;19.10;50.40;;;;;;5129352;27;45307;-72
2023/10/05 07:51:59;;;;;;;1.10;1.00;;;19.10;50.50;;;;;;5129745;27;45456;-72
2023/10/05 07:54:27;;;;;;;3.35;1.15;;;19.10;50.50;;;;;;5129139;27;46407;-72
2023/10/05 07:56:54;;;;;;;3.80;1.10;;;19.10;50.40;;;;;;5129378;27;45440;-72
2023/10/05 07:59:22;;;;;;;1.23;1.10;;;19.10;50.40;;;;;;5129021;27;45310;-72
2023/10/05 08:01:52;;;;;;;1.50;1.30;;;19.10;50.40;;;;;;5129438;27;45362;-72
2023/10/05 08:04:19;;;;;;;4.28;1.38;;;19.10;51.00;;;;;;5128987;27;45613;-71
2023/10/05 08:06:46;;;;;;;1.45;1.10;;;19.10;50.50;;;;;;5129363;27;45275;-71
2023/10/05 08:09:15;;;;;;;3.35;1.35;;;19.10;50.50;;;;;;5128950;27;45183;-70
2023/10/05 08:11:43;;;;;;;1.70;1.45;;;19.20;50.40;;;;;;5129348;27;45128;-71
2023/10/05 08:14:11;;;;;;;3.42;1.40;;;19.20;50.50;;;;;;5128075;27;45474;-70
2023/10/05 08:16:38;;;;;;;2.13;1.25;;;19.20;50.90;;;;;;5129309;27;45332;-70
2023/10/05 08:19:05;;;;;;;2.70;1.58;;;19.20;51.00;;;;;;5128672;27;45290;-69
2023/10/05 08:21:32;;;;;;;2.08;1.45;;;19.20;51.20;;;;;;5129294;27;45481;-71
2023/10/05 08:23:59;;;;;;;3.50;1.60;;;19.20;51.00;;;;;;5113458;27;46602;-72
2023/10/05 08:26:28;;;;;;;3.67;1.55;;;19.20;51.30;;;;;;5127353;27;45416;-72
2023/10/05 08:28:56;;;;;;;3.05;1.70;;;19.20;51.60;;;;;;5128601;27;45387;-72
2023/10/05 08:31:24;;;;;;;3.90;2.03;;;19.20;52.50;;;;;;5124969;27;45406;-72
2023/10/05 08:33:52;;;;;;;3.85;2.08;;;19.00;53.00;;;;;;5112569;27;45791;-71
2023/10/05 08:36:19;;;;;;;2.83;1.55;;;18.90;53.20;;;;;;5124991;27;45430;-71
2023/10/05 08:38:48;;;;;;;3.45;1.73;;;18.80;53.20;;;;;;5128207;27;45516;-73
2023/10/05 08:41:20;;;;;;;2.80;1.63;;;18.80;53.40;;;;;;5111289;27;45375;-74
2023/10/05 08:43:50;;;;;;;3.80;1.98;;;18.90;53.30;;;;;;5121259;27;46456;-73
2023/10/05 08:46:18;;;;;;;2.67;1.75;;;18.80;53.90;;;;;;5118182;27;45310;-71
2023/10/05 08:48:46;;;;;;;4.18;1.85;;;18.80;54.20;;;;;;5113064;27;45162;-70
2023/10/05 08:51:14;;;;;;;2.97;1.67;;;18.70;54.60;;;;;;5123740;27;45384;-71
2023/10/05 08:53:43;;;;;;;3.38;1.88;;;18.70;54.80;;;;;;5127704;27;45272;-71
2023/10/05 08:56:13;;;;;;;4.88;1.65;;;18.70;55.00;;;;;;5128522;27;45226;-71
2023/10/05 08:58:41;;;;;;;2.15;1.58;;;18.60;54.90;;;;;;5128165;27;45334;-73
2023/10/05 09:01:27;;;;;;;2.50;1.60;;;18.60;54.80;;;;;;5128286;27;45225;-73
2023/10/05 09:04:11;;;;;;;5.43;2.00;;;18.70;55.10;;;;;;5114562;27;46561;-73
2023/10/05 09:06:47;;;;;;;3.28;1.92;;;18.70;55.00;;;;;;5127776;27;46108;-73
2023/10/05 09:09:14;;;;;;;4.20;2.20;;;18.70;55.00;;;;;;5128536;27;45291;-73
2023/10/05 09:11:41;;;;;;;4.22;2.13;;;18.70;55.20;;;;;;5128730;27;45231;-73
2023/10/05 09:14:17;;;;;;;3.55;2.00;;;18.70;55.50;;;;;;5120202;27;45488;-73
2023/10/05 09:16:47;;;;;;;4.47;3.03;;;18.70;55.40;;;;;;5128339;27;45342;-72
2023/10/05 09:19:17;;;;;;;5.68;2.10;;;18.80;55.30;;;;;;5129668;27;45205;-76
2023/10/05 09:21:50;;;;;;;3.83;2.13;;;18.90;55.10;;;;;;5129523;27;45387;-76
2023/10/05 09:24:20;;;;;;;1.88;1.60;;;19.00;55.00;;;;;;5130095;27;45552;-76
2023/10/05 09:26:51;;;;;;;6.50;1.80;;;19.00;54.70;;;;;;5128432;27;45271;-76
2023/10/05 09:29:30;;;;;;;3.53;1.60;;;19.10;54.60;;;;;;5126266;27;45243;-75
2023/10/05 09:31:59;;;;;;;4.78;2.10;;;19.10;54.60;;;;;;5129164;27;45681;-76
2023/10/05 09:34:43;;;;;;;3.08;1.88;;;19.20;54.50;;;;;;5133810;27;46729;-76
2023/10/05 09:37:11;;;;;;;3.13;1.80;;;19.20;54.50;;;;;;5133513;27;45216;-76
2023/10/05 09:39:42;;;;;;;3.20;1.58;;;19.30;54.50;;;;;;5132408;27;45267;-76
2023/10/05 09:42:17;;;;;;;2.60;1.67;;;19.30;54.30;;;;;;5132557;27;45572;-77
2023/10/05 09:44:50;;;;;;;4.28;1.73;;;19.20;54.10;;;;;;5131708;27;46668;-73
2023/10/05 09:47:19;;;;;;;3.05;1.77;;;19.30;54.30;;;;;;5133622;27;45491;-74
2023/10/05 09:49:46;;;;;;;3.75;1.80;;;19.30;54.30;;;;;;5132434;27;45307;-74
2023/10/05 09:52:13;;;;;;;3.17;2.00;;;19.40;54.40;;;;;;5131555;27;45143;-75
2023/10/05 09:54:41;;;;;;;3.90;1.77;;;19.40;54.60;;;;;;5132505;27;45378;-75
2023/10/05 09:57:11;;;;;;;3.92;1.90;;;19.40;54.80;;;;;;5131079;27;45315;-76
2023/10/05 09:59:41;;;;;;;4.93;2.15;;;19.40;54.60;;;;;;5131183;27;45245;-77
2023/10/05 10:02:12;;;;;;;2.95;1.70;;;19.50;55.40;;;;;;5132023;27;45293;-76
2023/10/05 10:04:40;;;;;;;3.42;2.17;;;19.50;54.70;;;;;;5131397;27;48309;-77
2023/10/05 10:07:15;;;;;;;4.60;2.15;;;19.60;54.80;;;;;;5131230;27;45309;-76
2023/10/05 10:09:44;;;;;;;3.35;2.25;;;19.60;54.70;;;;;;5131268;27;45268;-76
2023/10/05 10:12:11;;;;;;;4.00;2.42;;;19.60;54.60;;;;;;5131280;27;45426;-75
2023/10/05 10:14:41;;;;;;;2.88;1.77;;;19.60;54.50;;;;;;5132323;27;45295;-73
2023/10/05 10:17:24;;;;;;;4.32;2.03;;;19.70;54.40;;;;;;5131026;27;45315;-76
2023/10/05 10:20:06;;;;;;;6.63;1.92;;;19.70;54.30;;;;;;5132170;27;45238;-73
2023/10/05 10:22:50;;;;;;;3.20;1.52;;;19.80;54.50;;;;;;5131455;27;45186;-77
2023/10/05 10:25:30;;;;;;;6.40;1.70;;;19.90;54.20;;;;;;5131426;27;46996;-76
2023/10/05 10:28:17;;;;;;;5.88;2.40;;;19.90;54.10;;;;;;5130778;27;45337;-76
2023/10/05 10:30:47;;;;;;;2.47;1.88;;;20.00;53.90;;;;;;5130948;27;45394;-75
2023/10/05 10:33:30;;;;;;;1.92;1.50;;;20.10;53.70;;;;;;5131556;27;45472;-76
2023/10/05 10:35:59;;;;;;;3.13;1.73;;;20.20;54.10;;;;;;5130504;27;45468;-75
2023/10/05 10:38:27;;;;;;;2.60;1.70;;;20.30;53.00;;;;;;5130535;27;45355;-75
2023/10/05 10:41:10;;;;;;;4.53;1.77;;;20.40;52.80;;;;;;5121060;27;45470;-75
2023/10/05 10:43:37;;;;;;;3.25;1.70;;;20.50;52.40;;;;;;5129149;27;45270;-73
2023/10/05 10:46:13;;;;;;;4.47;1.63;;;20.50;52.60;;;;;;5130293;27;47312;-75
2023/10/05 10:48:53;;;;;;;2.10;1.60;;;20.50;52.70;;;;;;5129775;27;45443;-74
2023/10/05 10:51:22;;;;;;;2.45;1.80;;;20.50;52.70;;;;;;5130687;27;45351;-75
2023/10/05 10:53:51;;;;;;;4.22;1.83;;;20.40;52.50;;;;;;5130534;27;45312;-75
2023/10/05 10:56:21;;;;;;;2.63;1.50;;;20.40;52.70;;;;;;5130518;27;46672;-75
2023/10/05 10:58:56;;;;;;;2.47;1.73;;;20.40;52.60;;;;;;5131535;27;45248;-76
2023/10/05 11:01:28;;;;;;;4.03;1.60;;;20.40;52.60;;;;;;5116639;27;45385;-75
2023/10/05 11:04:00;;;;;;;4.13;1.98;;;20.50;52.90;;;;;;5129552;27;45424;-75
2023/10/05 11:06:28;;;;;;;3.50;1.90;;;20.50;52.70;;;;;;5129761;27;47725;-74
2023/10/05 11:08:59;;;;;;;3.22;1.70;;;20.50;52.60;;;;;;5126692;27;45324;-75
2023/10/05 11:11:26;;;;;;;2.45;1.40;;;20.50;52.40;;;;;;5116979;27;45345;-75
2023/10/05 11:13:55;;;;;;;2.83;1.52;;;20.60;52.10;;;;;;5118241;27;45278;-75
2023/10/05 11:16:21;;;;;;;2.30;1.67;;;20.50;52.10;;;;;;5125679;27;46372;-76
2023/10/05 11:18:57;;;;;;;4.32;2.15;;;20.60;52.10;;;;;;5113338;27;45325;-75
2023/10/05 11:21:26;;;;;;;4.05;1.80;;;20.50;51.80;;;;;;5129147;27;45288;-75
2023/10/05 11:23:57;;;;;;;2.22;1.70;;;20.50;51.60;;;;;;5123313;27;45316;-75
2023/10/05 11:26:33;;;;;;;2.05;1.20;;;20.50;51.50;;;;;;5119186;27;46676;-75
2023/10/05 11:29:00;;;;;;;1.80;1.25;;;20.50;51.20;;;;;;5113604;27;45533;-75
2023/10/05 11:31:27;;;;;;;3.20;1.60;;;20.50;50.90;;;;;;5121513;27;45194;-76
2023/10/05 11:33:54;;;;;;;3.08;1.38;;;20.60;51.50;;;;;;5122532;27;45613;-75
2023/10/05 11:36:22;;;;;;;4.00;1.70;;;20.60;51.30;;;;;;5127594;27;45448;-72
2023/10/05 11:38:49;;;;;;;2.33;1.50;;;20.70;51.50;;;;;;5111353;27;45315;-71
2023/10/05 11:41:19;;;;;;;3.05;1.52;;;20.90;51.60;;;;;;5123280;27;45232;-72
2023/10/05 11:43:51;;;;;;;3.88;1.45;;;20.90;50.20;;;;;;5129054;27;45437;-73
2023/10/05 11:46:24;;;;;;;4.28;1.52;;;21.00;50.00;;;;;;5129070;27;45652;-72
2023/10/05 11:48:55;;;;;;;4.70;1.70;;;21.10;49.70;;;;;;5126023;27;45318;-72
2023/10/05 11:51:26;;;;;;;2.40;1.20;;;21.20;49.50;;;;;;5128171;27;45340;-72
2023/10/05 11:53:55;;;;;;;2.35;1.52;;;21.30;49.50;;;;;;5129404;27;45243;-72
2023/10/05 11:56:26;;;;;;;3.63;1.42;;;21.40;49.30;;;;;;5128648;27;45383;-72
2023/10/05 11:58:59;;;;;;;4.28;1.67;;;21.60;49.00;;;;;;5112931;27;45328;-73
2023/10/05 12:01:26;;;;;;;2.83;1.60;;;21.70;48.40;;;;;;5120550;27;45310;-73
2023/10/05 12:03:55;;;;;;;2.97;1.20;;;21.80;48.00;;;;;;5120040;27;45407;-77
2023/10/05 12:06:25;;;;;;;3.33;1.50;;;21.90;47.60;;;;;;5112588;27;45939;-76
2023/10/05 12:08:53;;;;;;;1.38;1.00;;;21.90;47.40;;;;;;5108434;27;45195;-76
2023/10/05 12:11:24;;;;;;;2.17;1.17;;;22.00;46.80;;;;;;5109298;27;45445;-78
2023/10/05 12:13:56;;;;;;;4.22;1.45;;;22.10;46.70;;;;;;5109134;27;45457;-77
2023/10/05 12:16:24;;;;;;;2.95;1.48;;;22.20;46.70;;;;;;5107820;27;46157;-78
2023/10/05 12:18:51;;;;;;;2.75;1.15;;;22.20;46.90;;;;;;5108089;27;45200;-78
2023/10/05 12:21:18;;;;;;;3.30;1.30;;;22.20;46.40;;;;;;5119688;27;45279;-76
2023/10/05 12:23:45;;;;;;;2.63;1.20;;;22.20;46.40;;;;;;5108786;27;45554;-78
2023/10/05 12:26:12;;;;;;;2.17;1.33;;;22.30;46.40;;;;;;5120834;27;47312;-76
2023/10/05 12:28:43;;;;;;;3.75;1.65;;;22.30;46.20;;;;;;5128386;27;45439;-77
2023/10/05 12:31:12;;;;;;;1.80;1.45;;;22.50;45.90;;;;;;5128337;27;45213;-77
2023/10/05 12:33:40;;;;;;;2.00;1.23;;;22.50;45.40;;;;;;5129001;27;45370;-76
2023/10/05 12:36:09;;;;;;;2.20;1.25;;;22.50;45.70;;;;;;5120548;27;45589;-76
2023/10/05 12:38:36;;;;;;;2.80;1.33;;;22.60;45.60;;;;;;5107975;27;45455;-75
2023/10/05 12:41:12;;;;;;;2.47;1.40;;;22.50;45.30;;;;;;5106931;27;45248;-75
2023/10/05 12:43:41;;;;;;;2.42;1.40;;;22.50;45.20;;;;;;5107505;27;45327;-76
2023/10/05 12:46:10;;;;;;;2.65;1.30;;;22.60;45.30;;;;;;5120006;27;45307;-76
2023/10/05 12:48:38;;;;;;;3.65;1.42;;;22.70;44.90;;;;;;5128358;27;45382;-75
2023/10/05 12:51:05;;;;;;;1.90;1.35;;;22.80;44.70;;;;;;5128429;27;45233;-76
2023/10/05 12:53:33;;;;;;;3.13;1.13;;;22.70;44.50;;;;;;5128584;27;45168;-76
2023/10/05 12:56:01;;;;;;;3.22;1.38;;;22.50;44.30;;;;;;5128218;27;45301;-76
2023/10/05 12:58:29;;;;;;;2.30;1.27;;;22.40;44.60;;;;;;5128209;27;45329;-76
2023/10/05 13:01:07;;;;;;;2.25;1.40;;;22.30;45.20;;;;;;5128433;27;45219;-76
2023/10/05 13:03:36;;;;;;;1.98;1.40;;;22.30;45.50;;;;;;5128712;27;45183;-72